Time;durP1;ratioP1;P1;durP2;ratioP2;P2;SDS_P1;SDS_P2;PMS_P1;PMS_P2;Temp;Humidity;BMP_temperature;BMP_pressure;BME280_temperature;BME280_humidity;BME280_pressure;Samples;Min_cycle;Max_cycle;Signal;HPM_P1;HPM_P2
2021/12/16 00:31:53;;;;;;;48.22;25.27;;;;;;;5.48;100.00;102203.50;4978936;28;20027;-72
2021/12/16 00:34:39;;;;;;;44.95;25.30;;;;;;;5.50;100.00;102206.13;4979490;28;20113;-74
2021/12/16 00:37:26;;;;;;;48.22;25.90;;;;;;;5.28;100.00;102211.59;4978685;28;20471;-74
2021/12/16 00:40:13;;;;;;;46.42;25.42;;;;;;;5.16;100.00;102200.88;4979066;28;20030;-74
2021/12/16 00:43:12;;;;;;;45.55;25.17;;;;;;;5.17;100.00;102202.63;4979256;28;20031;-73
2021/12/16 00:46:13;;;;;;;49.75;26.25;;;;;;;4.91;100.00;102195.81;4978984;28;20026;-73
2021/12/16 00:58:06;;;;;;;50.53;26.98;;;;;;;4.85;100.00;102201.72;4979206;28;20027;-72
2021/12/16 01:01:34;;;;;;;52.47;27.15;;;;;;;5.09;100.00;102198.94;4964685;28;20349;-73
2021/12/16 01:35:29;;;;;;;41.22;22.90;;;;;;;5.01;100.00;102177.06;4978089;28;20035;-73
2021/12/16 01:50:07;;;;;;;44.75;22.58;;;;;;;5.22;100.00;102175.03;4977394;28;20037;-73
2021/12/16 01:55:48;;;;;;;43.22;22.30;;;;;;;4.87;100.00;102175.81;4977936;28;20443;-74
2021/12/16 01:58:34;;;;;;;42.72;23.00;;;;;;;4.90;100.00;102168.06;4977800;28;20070;-73
2021/12/16 02:01:29;;;;;;;42.70;22.50;;;;;;;5.12;100.00;102155.75;4977285;28;20499;-74
2021/12/16 02:04:29;;;;;;;43.55;23.13;;;;;;;4.98;100.00;102166.56;4976993;28;20093;-74
2021/12/16 02:07:32;;;;;;;42.13;22.23;;;;;;;4.81;100.00;102157.44;4977111;28;20045;-73
2021/12/16 02:10:23;;;;;;;45.25;23.58;;;;;;;5.28;100.00;102159.63;4966013;28;20041;-74
2021/12/16 02:29:08;;;;;;;46.15;24.63;;;;;;;4.82;100.00;102173.06;4976322;28;20463;-74
2021/12/16 02:37:49;;;;;;;44.47;23.13;;;;;;;4.64;100.00;102172.53;4977150;28;20113;-74
2021/12/16 02:40:36;;;;;;;43.42;22.38;;;;;;;5.12;100.00;102170.44;4977150;28;20037;-73
2021/12/16 02:49:13;;;;;;;43.28;22.88;;;;;;;4.93;100.00;102156.06;4976276;28;20419;-73
2021/12/16 02:51:59;;;;;;;43.42;22.60;;;;;;;4.53;100.00;102157.47;4977326;28;20126;-72
2021/12/16 02:54:45;;;;;;;46.22;24.10;;;;;;;4.51;100.00;102154.81;4962701;28;20031;-74
2021/12/16 02:57:36;;;;;;;45.85;22.58;;;;;;;4.35;100.00;102160.38;4976819;28;20110;-73
2021/12/16 03:00:22;;;;;;;41.90;22.10;;;;;;;4.66;100.00;102154.38;4976441;28;20395;-73
2021/12/16 03:03:07;;;;;;;42.85;22.85;;;;;;;4.55;100.00;102155.81;4976762;28;20026;-73
2021/12/16 03:05:54;;;;;;;44.08;23.48;;;;;;;4.33;100.00;102161.16;4976265;28;20101;-72
2021/12/16 03:08:40;;;;;;;45.58;24.02;;;;;;;4.49;100.00;102160.81;4961884;28;20049;-73
2021/12/16 03:11:38;;;;;;;46.60;24.15;;;;;;;4.51;100.00;102159.16;4976440;28;20363;-73
2021/12/16 03:14:36;;;;;;;45.47;24.23;;;;;;;4.28;100.00;102160.16;4976274;28;20560;-74
2021/12/16 03:20:19;;;;;;;49.70;24.15;;;;;;;4.23;100.00;102152.22;4976493;28;20019;-73
2021/12/16 03:35:39;;;;;;;44.88;23.30;;;;;;;4.08;100.00;102166.44;4976251;28;20026;-73
2021/12/16 03:38:25;;;;;;;45.75;23.00;;;;;;;4.22;100.00;102155.66;4975657;28;20026;-76
2021/12/16 03:41:11;;;;;;;44.05;22.92;;;;;;;3.98;100.00;102154.88;4975523;28;20117;-72
2021/12/16 03:43:59;;;;;;;39.72;21.83;;;;;;;3.76;100.00;102157.63;4975603;28;20113;-72
2021/12/16 03:46:50;;;;;;;44.42;23.17;;;;;;;3.86;100.00;102149.31;4961616;28;20092;-74
2021/12/16 03:49:36;;;;;;;45.58;23.20;;;;;;;3.95;100.00;102157.38;4975494;28;20518;-75
2021/12/16 03:52:24;;;;;;;43.50;22.88;;;;;;;4.05;100.00;102162.03;4976161;28;20146;-72
2021/12/16 03:55:10;;;;;;;43.83;23.30;;;;;;;4.13;100.00;102163.16;4962613;28;20034;-75
2021/12/16 03:57:56;;;;;;;45.17;23.65;;;;;;;3.76;100.00;102167.13;4976386;28;20030;-73
2021/12/16 04:01:01;;;;;;;43.35;23.60;;;;;;;3.64;100.00;102170.19;4975530;28;20038;-73
2021/12/16 04:03:49;;;;;;;41.13;22.38;;;;;;;3.79;100.00;102175.88;4975453;28;20534;-73
2021/12/16 04:06:37;;;;;;;43.88;23.33;;;;;;;3.76;100.00;102170.59;4975311;28;20026;-72
2021/12/16 04:09:23;;;;;;;42.35;22.67;;;;;;;3.38;100.00;102165.81;4975767;28;20027;-73
2021/12/16 04:12:12;;;;;;;42.10;21.85;;;;;;;3.19;100.00;102163.44;4975527;28;20073;-74
2021/12/16 04:15:01;;;;;;;45.03;23.05;;;;;;;3.01;100.00;102165.38;4961189;28;20022;-72
2021/12/16 04:17:47;;;;;;;39.65;21.83;;;;;;;3.12;100.00;102169.22;4961219;28;20047;-72
2021/12/16 04:20:33;;;;;;;41.85;21.75;;;;;;;3.03;100.00;102163.72;4975264;28;20038;-72
2021/12/16 04:23:20;;;;;;;48.78;23.30;;;;;;;3.08;100.00;102171.63;4975391;28;20049;-72
2021/12/16 04:26:06;;;;;;;44.08;22.73;;;;;;;3.29;100.00;102168.09;4961552;28;20423;-73
2021/12/16 04:28:51;;;;;;;44.75;22.33;;;;;;;3.01;100.00;102165.38;4975252;28;20106;-72
2021/12/16 04:31:38;;;;;;;43.90;22.00;;;;;;;2.92;100.00;102169.31;4975163;28;20027;-73
2021/12/16 04:34:24;;;;;;;47.40;23.75;;;;;;;2.99;100.00;102160.97;4962205;28;20031;-72
2021/12/16 04:37:10;;;;;;;46.22;22.23;;;;;;;3.03;100.00;102161.13;4974955;28;20485;-72
2021/12/16 04:39:59;;;;;;;47.20;23.02;;;;;;;2.78;100.00;102155.00;4975509;28;20078;-72
2021/12/16 04:42:47;;;;;;;42.88;22.27;;;;;;;2.53;100.00;102157.53;4975237;28;20038;-72
2021/12/16 04:45:34;;;;;;;43.72;22.40;;;;;;;2.86;100.00;102154.44;4975257;28;20077;-73
2021/12/16 04:48:20;;;;;;;44.15;21.77;;;;;;;2.87;100.00;102156.25;4975398;28;20077;-72
2021/12/16 04:51:07;;;;;;;45.17;23.10;;;;;;;2.72;100.00;102150.50;4961820;28;20109;-73
2021/12/16 04:53:53;;;;;;;47.63;23.38;;;;;;;2.67;100.00;102157.22;4979440;28;20117;-72
2021/12/16 04:56:40;;;;;;;45.17;23.42;;;;;;;2.90;100.00;102156.31;4964922;28;20046;-72
2021/12/16 04:59:28;;;;;;;45.35;23.40;;;;;;;2.83;100.00;102161.22;4965386;28;20054;-73
2021/12/16 05:02:18;;;;;;;47.92;23.75;;;;;;;2.87;100.00;102170.88;4978338;28;20126;-72
2021/12/16 05:05:04;;;;;;;47.28;22.75;;;;;;;2.65;100.00;102164.03;4978745;28;20034;-71
2021/12/16 05:07:50;;;;;;;43.97;22.50;;;;;;;2.76;100.00;102175.66;4978417;28;20466;-73
2021/12/16 05:10:36;;;;;;;44.60;22.88;;;;;;;2.83;100.00;102169.91;4978246;28;20077;-72
2021/12/16 05:13:25;;;;;;;46.08;21.83;;;;;;;2.85;100.00;102177.72;4978831;28;20092;-71
2021/12/16 05:16:12;;;;;;;43.15;21.60;;;;;;;2.96;100.00;102168.59;4964724;28;20045;-71
2021/12/16 05:18:59;;;;;;;42.63;22.20;;;;;;;3.28;100.00;102181.88;4977709;28;20061;-72
2021/12/16 05:21:55;;;;;;;38.70;21.33;;;;;;;3.13;100.00;102185.66;4978607;28;20035;-72
2021/12/16 05:24:41;;;;;;;45.83;22.33;;;;;;;3.31;100.00;102188.88;4964367;28;20031;-72
2021/12/16 05:27:27;;;;;;;41.67;22.25;;;;;;;3.13;100.00;102189.09;4978100;28;20101;-72
2021/12/16 05:30:13;;;;;;;42.42;22.13;;;;;;;3.29;100.00;102186.22;4977848;28;20098;-73
2021/12/16 05:33:00;;;;;;;43.50;22.27;;;;;;;3.16;100.00;102175.38;4978421;28;20023;-72
2021/12/16 05:35:46;;;;;;;46.40;23.05;;;;;;;3.28;100.00;102183.59;4978021;28;20035;-71
2021/12/16 05:38:32;;;;;;;44.05;22.40;;;;;;;3.48;100.00;102186.06;4977655;28;20027;-72
2021/12/16 05:41:20;;;;;;;45.13;22.95;;;;;;;3.80;100.00;102189.72;4978631;28;20440;-74
2021/12/16 05:44:06;;;;;;;48.97;23.83;;;;;;;3.65;100.00;102192.69;4977507;28;20434;-73
2021/12/16 05:46:52;;;;;;;46.92;22.60;;;;;;;3.60;100.00;102189.06;4977642;28;20114;-72
2021/12/16 05:49:37;;;;;;;47.28;23.30;;;;;;;3.76;100.00;102188.75;4977485;28;20033;-74
2021/12/16 05:52:23;;;;;;;46.50;24.20;;;;;;;3.74;100.00;102184.34;4977759;28;20047;-74
2021/12/16 05:55:11;;;;;;;45.05;23.02;;;;;;;3.87;100.00;102186.50;4963808;28;20125;-74
2021/12/16 05:58:00;;;;;;;43.15;23.67;;;;;;;3.62;100.00;102189.13;4977807;28;20435;-73
2021/12/16 06:00:55;;;;;;;42.08;22.75;;;;;;;3.74;100.00;102185.19;4963529;28;20026;-74
2021/12/16 06:03:45;;;;;;;48.15;23.10;;;;;;;3.56;100.00;102191.47;4977687;28;20031;-73
2021/12/16 06:06:32;;;;;;;50.20;22.67;;;;;;;3.31;100.00;102192.38;4977298;28;20037;-73
2021/12/16 06:09:17;;;;;;;46.70;24.10;;;;;;;2.96;100.00;102203.16;4963700;28;20054;-72
2021/12/16 06:12:05;;;;;;;45.45;22.70;;;;;;;2.96;100.00;102210.03;4977461;28;20409;-72
2021/12/16 06:27:08;;;;;;;46.22;23.35;;;;;;;2.96;100.00;102213.50;4976954;28;20031;-72
2021/12/16 06:29:54;;;;;;;49.88;24.05;;;;;;;2.76;100.00;102214.47;4977666;28;20029;-73
2021/12/16 06:32:40;;;;;;;46.83;24.00;;;;;;;3.15;100.00;102207.28;4977429;28;20042;-73
2021/12/16 06:35:27;;;;;;;49.33;24.27;;;;;;;2.89;100.00;102201.16;4977326;28;20065;-73
2021/12/16 06:38:13;;;;;;;49.28;25.25;;;;;;;2.99;100.00;102202.38;4977344;28;20034;-75
2021/12/16 06:40:59;;;;;;;48.53;24.63;;;;;;;3.20;100.00;102196.28;4977613;28;20534;-74
2021/12/16 06:43:47;;;;;;;46.55;24.10;;;;;;;2.87;100.00;102192.47;4976582;28;20066;-72
2021/12/16 06:46:36;;;;;;;51.70;25.00;;;;;;;3.18;100.00;102195.31;4963083;28;20117;-73
2021/12/16 06:49:23;;;;;;;51.90;24.45;;;;;;;3.10;100.00;102198.47;4976821;28;20058;-73
2021/12/16 06:52:12;;;;;;;52.95;25.08;;;;;;;3.06;100.00;102206.97;4963326;28;20101;-73
2021/12/16 06:55:19;;;;;;;47.80;23.58;;;;;;;2.94;100.00;102220.31;4976738;28;20455;-73
2021/12/16 06:59:04;;;;;;;49.25;24.55;;;;;;;2.99;100.00;102223.97;4976769;28;20208;-72
2021/12/16 07:01:29;;;;;;;47.03;23.00;;;;;;;2.84;100.00;102223.41;4973552;28;20089;-73
2021/12/16 07:04:18;;;;;;;48.72;24.13;;;;;;;2.89;100.00;102226.19;4976863;28;20018;-73
2021/12/16 07:07:06;;;;;;;50.28;24.70;;;;;;;3.40;100.00;102225.47;4975950;28;20045;-75
2021/12/16 07:09:52;;;;;;;55.60;25.48;;;;;;;3.49;100.00;102224.06;4976555;28;20035;-74
2021/12/16 07:12:39;;;;;;;64.05;27.05;;;;;;;3.87;100.00;102231.44;4976083;28;20418;-73
2021/12/16 07:15:29;;;;;;;55.83;27.13;;;;;;;3.97;100.00;102235.22;4976036;28;20031;-74
2021/12/16 07:18:15;;;;;;;62.50;27.73;;;;;;;3.50;100.00;102232.75;4975760;28;20046;-72
2021/12/16 07:21:01;;;;;;;73.15;29.95;;;;;;;3.35;100.00;102235.69;4976342;28;20356;-74
2021/12/16 07:23:47;;;;;;;59.50;26.33;;;;;;;3.84;100.00;102236.53;4976305;28;20049;-73
2021/12/16 07:26:34;;;;;;;59.97;26.92;;;;;;;3.84;100.00;102238.25;4975992;28;20095;-74
2021/12/16 07:29:19;;;;;;;78.18;35.60;;;;;;;3.97;100.00;102249.06;4975994;28;20018;-73
2021/12/16 07:32:06;;;;;;;60.10;26.80;;;;;;;3.70;100.00;102255.91;4975748;28;20026;-74
2021/12/16 07:34:52;;;;;;;63.28;27.92;;;;;;;3.62;100.00;102239.22;4976201;28;20031;-73
2021/12/16 07:37:38;;;;;;;64.78;27.88;;;;;;;3.74;100.00;102242.22;4975533;28;20093;-73
2021/12/16 07:40:26;;;;;;;60.85;26.58;;;;;;;3.64;100.00;102247.03;4961770;28;20027;-74
2021/12/16 07:43:24;;;;;;;68.80;28.90;;;;;;;3.65;100.00;102244.50;4975660;28;20031;-74
2021/12/16 07:46:11;;;;;;;64.63;28.85;;;;;;;3.93;100.00;102244.63;4976639;28;20364;-74
2021/12/16 07:48:57;;;;;;;62.22;27.05;;;;;;;3.73;100.00;102234.38;4975786;28;20031;-74
2021/12/16 07:51:44;;;;;;;65.97;27.65;;;;;;;3.65;100.00;102238.44;4975663;28;20027;-73
2021/12/16 07:54:30;;;;;;;75.03;28.30;;;;;;;3.46;100.00;102236.06;4976075;28;20537;-74
2021/12/16 07:57:16;;;;;;;71.60;29.23;;;;;;;4.00;100.00;102244.00;4975460;28;20035;-73
2021/12/16 08:00:07;;;;;;;78.60;28.65;;;;;;;3.86;100.00;102229.69;4975340;28;20351;-74
2021/12/16 08:02:53;;;;;;;68.85;28.38;;;;;;;3.75;100.00;102236.25;4975426;28;20499;-73
2021/12/16 08:05:46;;;;;;;86.32;28.70;;;;;;;3.89;100.00;102236.66;4975521;28;20066;-73
2021/12/16 08:08:33;;;;;;;78.65;28.85;;;;;;;3.83;100.00;102231.31;4975263;28;20027;-74
2021/12/16 08:11:19;;;;;;;66.90;28.45;;;;;;;3.89;100.00;102234.97;4975411;28;20034;-73
2021/12/16 08:14:06;;;;;;;64.40;26.33;;;;;;;3.67;100.00;102231.59;4975236;28;20114;-73
2021/12/16 08:16:51;;;;;;;65.53;28.25;;;;;;;3.87;100.00;102228.84;4975266;28;20197;-73
2021/12/16 08:19:37;;;;;;;78.25;29.70;;;;;;;3.07;100.00;102230.31;4975967;28;20030;-77
2021/12/16 08:22:23;;;;;;;67.28;27.42;;;;;;;3.47;100.00;102230.03;4975803;28;20022;-74
2021/12/16 08:25:09;;;;;;;64.88;27.90;;;;;;;3.80;100.00;102231.19;4975066;28;20046;-73
2021/12/16 08:28:03;;;;;;;62.22;26.83;;;;;;;3.29;100.00;102226.78;4979335;28;20031;-74
2021/12/16 08:30:50;;;;;;;60.00;26.13;;;;;;;3.42;100.00;102236.78;4978950;28;20023;-74
2021/12/16 08:33:37;;;;;;;70.53;28.38;;;;;;;3.61;100.00;102233.97;4979022;28;20101;-74
2021/12/16 08:36:24;;;;;;;64.30;27.75;;;;;;;3.49;100.00;102229.25;4965695;28;20027;-74
2021/12/16 08:39:10;;;;;;;67.32;29.13;;;;;;;3.65;100.00;102223.78;4979468;28;20093;-73
2021/12/16 08:41:59;;;;;;;70.10;29.00;;;;;;;3.69;100.00;102225.66;4979118;28;20089;-73
2021/12/16 08:44:45;;;;;;;77.80;29.27;;;;;;;4.12;100.00;102223.66;4978848;28;20470;-74
2021/12/16 08:47:31;;;;;;;79.32;30.08;;;;;;;3.68;100.00;102216.13;4978844;28;20340;-73
2021/12/16 08:50:20;;;;;;;81.53;31.30;;;;;;;4.03;100.00;102223.31;4978442;28;20031;-74
2021/12/16 08:53:09;;;;;;;74.72;30.63;;;;;;;4.08;100.00;102234.75;4978800;28;20431;-73
2021/12/16 08:55:56;;;;;;;71.57;29.13;;;;;;;3.70;100.00;102224.81;4978610;28;20443;-74
2021/12/16 08:58:43;;;;;;;78.70;32.65;;;;;;;3.60;100.00;102224.44;4979125;28;20035;-73
2021/12/16 09:01:31;;;;;;;74.65;29.90;;;;;;;4.02;100.00;102229.34;4978465;28;20069;-74
2021/12/16 09:04:19;;;;;;;65.65;26.98;;;;;;;4.09;100.00;102227.84;4978382;28;20093;-73
2021/12/16 09:07:08;;;;;;;84.63;30.80;;;;;;;3.56;100.00;102225.16;4977752;28;20045;-74
2021/12/16 09:09:56;;;;;;;70.45;29.30;;;;;;;3.66;100.00;102222.94;4978386;28;20042;-74
2021/12/16 09:13:17;;;;;;;90.20;32.75;;;;;;;3.65;100.00;102222.88;4978477;28;20026;-73
2021/12/16 09:15:58;;;;;;;72.28;28.95;;;;;;;3.92;100.00;102229.91;4977760;28;20030;-73
2021/12/16 09:18:45;;;;;;;86.80;32.05;;;;;;;3.92;100.00;102229.00;4978397;28;20046;-73
2021/12/16 09:21:33;;;;;;;78.82;32.80;;;;;;;3.82;100.00;102230.41;4978436;28;20027;-74
2021/12/16 09:24:19;;;;;;;80.90;34.03;;;;;;;3.98;100.00;102230.09;4964371;28;20041;-74
2021/12/16 09:27:05;;;;;;;79.82;33.60;;;;;;;3.63;100.00;102228.03;4964319;28;20030;-74
2021/12/16 09:29:51;;;;;;;90.35;35.40;;;;;;;3.77;100.00;102221.59;4978120;28;20471;-73
2021/12/16 09:32:37;;;;;;;83.28;35.03;;;;;;;3.75;100.00;102218.09;4977732;28;20035;-74
2021/12/16 09:35:24;;;;;;;81.85;35.03;;;;;;;3.85;100.00;102219.25;4977726;28;20163;-74
2021/12/16 09:38:11;;;;;;;73.18;33.88;;;;;;;3.89;100.00;102219.41;4977028;28;20019;-76
2021/12/16 09:40:57;;;;;;;79.70;34.53;;;;;;;3.56;100.00;102218.28;4977893;28;20031;-74
2021/12/16 09:43:47;;;;;;;79.13;34.35;;;;;;;4.07;100.00;102216.56;4977460;28;20427;-73
2021/12/16 09:46:33;;;;;;;78.10;35.10;;;;;;;4.33;100.00;102220.84;4977692;28;20427;-73
2021/12/16 09:49:19;;;;;;;73.95;33.63;;;;;;;4.08;100.00;102213.13;4977448;28;20101;-73
2021/12/16 09:52:10;;;;;;;82.22;32.75;;;;;;;3.52;100.00;102211.22;4964350;28;20031;-73
2021/12/16 09:54:56;;;;;;;79.22;31.20;;;;;;;3.62;100.00;102210.72;4977429;28;20027;-73
2021/12/16 09:57:42;;;;;;;88.85;33.80;;;;;;;3.94;100.00;102223.03;4964103;28;20034;-73
2021/12/16 10:00:29;;;;;;;87.20;33.63;;;;;;;3.96;100.00;102216.22;4977452;28;20038;-73
2021/12/16 10:03:15;;;;;;;74.40;30.60;;;;;;;4.15;100.00;102217.69;4977550;28;20031;-74
2021/12/16 10:06:01;;;;;;;70.07;29.67;;;;;;;4.10;100.00;102216.66;4977315;28;20155;-73
2021/12/16 10:08:47;;;;;;;75.10;31.08;;;;;;;4.15;100.00;102207.31;4976991;28;20114;-73
2021/12/16 10:11:36;;;;;;;65.90;29.52;;;;;;;4.40;100.00;102208.13;4978231;28;20023;-74
2021/12/16 10:14:46;;;;;;;61.53;27.25;;;;;;;3.99;100.00;102207.66;4977122;28;20026;-74
2021/12/16 10:17:34;;;;;;;71.90;29.80;;;;;;;4.25;100.00;102199.88;4977293;28;20062;-72
2021/12/16 10:20:26;;;;;;;75.20;30.45;;;;;;;3.99;100.00;102197.28;4976765;28;20038;-74
2021/12/16 10:23:26;;;;;;;74.07;30.35;;;;;;;4.16;100.00;102201.28;4963737;28;20066;-73
2021/12/16 10:26:22;;;;;;;70.15;29.75;;;;;;;4.12;100.00;102194.22;4962513;28;20031;-74
2021/12/16 10:29:07;;;;;;;67.13;29.42;;;;;;;4.16;100.00;102190.91;4976893;28;20035;-73
2021/12/16 10:31:53;;;;;;;63.72;28.27;;;;;;;4.21;100.00;102190.22;4977336;28;20027;-71
2021/12/16 10:34:39;;;;;;;64.45;28.42;;;;;;;4.12;100.00;102184.75;4976940;28;20050;-74
2021/12/16 10:37:33;;;;;;;62.70;28.45;;;;;;;4.79;100.00;102178.16;4976470;28;20033;-73
2021/12/16 10:40:43;;;;;;;58.38;27.27;;;;;;;3.87;100.00;102184.78;4976796;28;20034;-73
2021/12/16 10:43:35;;;;;;;64.65;29.67;;;;;;;3.76;100.00;102180.97;4977132;28;20031;-73
2021/12/16 10:46:28;;;;;;;60.85;28.10;;;;;;;3.44;100.00;102168.63;4976615;28;20357;-72
2021/12/16 10:49:20;;;;;;;64.78;27.90;;;;;;;4.11;100.00;102164.81;4975626;28;20055;-73
2021/12/16 10:52:16;;;;;;;66.30;29.08;;;;;;;4.62;100.00;102160.31;4976457;28;20062;-73
2021/12/16 10:55:03;;;;;;;68.70;29.65;;;;;;;4.95;100.00;102169.97;4976680;28;20042;-74
2021/12/16 10:57:51;;;;;;;60.83;28.23;;;;;;;4.48;100.00;102167.72;4962658;28;20041;-71
2021/12/16 11:00:36;;;;;;;65.50;28.88;;;;;;;4.70;100.00;102159.72;4976206;28;20111;-71
2021/12/16 11:03:43;;;;;;;62.53;27.60;;;;;;;4.48;100.00;102166.84;4976347;28;20129;-72
2021/12/16 11:06:36;;;;;;;57.85;27.10;;;;;;;4.75;100.00;102167.66;4962704;28;20023;-71
2021/12/16 11:09:29;;;;;;;48.75;24.85;;;;;;;5.12;100.00;102160.94;4976782;28;20459;-72
2021/12/16 11:12:17;;;;;;;51.55;25.20;;;;;;;5.19;100.00;102159.41;4962810;28;20062;-72
2021/12/16 11:15:14;;;;;;;50.08;24.42;;;;;;;5.30;100.00;102153.63;4976276;28;20061;-72
2021/12/16 11:18:08;;;;;;;53.72;25.63;;;;;;;5.17;100.00;102158.47;4975819;28;20509;-72
2021/12/16 11:21:07;;;;;;;52.47;25.83;;;;;;;5.38;100.00;102165.13;4975842;28;20159;-72
2021/12/16 11:23:53;;;;;;;49.17;24.45;;;;;;;4.73;100.00;102148.53;4975985;28;20041;-72
2021/12/16 11:26:40;;;;;;;49.00;24.23;;;;;;;5.03;100.00;102158.06;4976425;28;20066;-71
2021/12/16 11:29:31;;;;;;;49.63;24.52;;;;;;;4.96;100.00;102150.97;4976375;28;20045;-71
2021/12/16 11:32:41;;;;;;;51.22;25.00;;;;;;;5.40;100.00;102154.75;4976055;28;20022;-72
2021/12/16 11:35:38;;;;;;;50.35;24.17;;;;;;;5.16;100.00;102149.78;4975603;28;20018;-71
2021/12/16 11:38:43;;;;;;;50.75;24.38;;;;;;;5.20;100.00;102151.63;4963861;28;20096;-71
2021/12/16 11:41:43;;;;;;;50.15;23.33;;;;;;;4.55;100.00;102148.88;4975648;28;20027;-70
2021/12/16 11:44:33;;;;;;;54.33;26.33;;;;;;;4.98;100.00;102144.09;4975952;28;20452;-71
2021/12/16 11:47:24;;;;;;;56.00;25.48;;;;;;;5.30;100.00;102147.53;4976013;28;20403;-72
2021/12/16 11:50:10;;;;;;;56.40;25.70;;;;;;;5.04;100.00;102145.97;4961686;28;20097;-72
2021/12/16 11:52:57;;;;;;;56.45;26.95;;;;;;;5.08;100.00;102140.91;4975911;28;20089;-73
2021/12/16 11:55:43;;;;;;;58.28;27.23;;;;;;;4.58;100.00;102137.72;4975369;28;20128;-71
2021/12/16 11:58:30;;;;;;;62.67;26.77;;;;;;;4.89;100.00;102136.06;4975589;28;20023;-71
2021/12/16 12:01:22;;;;;;;55.40;26.45;;;;;;;4.83;100.00;102140.19;4974524;28;20038;-72
2021/12/16 12:04:10;;;;;;;54.33;26.60;;;;;;;5.16;100.00;102128.13;4975493;28;20422;-71
2021/12/16 12:06:56;;;;;;;64.55;27.77;;;;;;;5.08;100.00;102130.53;4975165;28;20023;-72
2021/12/16 12:09:49;;;;;;;61.45;28.73;;;;;;;5.25;100.00;102134.44;4975860;28;20440;-71
2021/12/16 12:12:40;;;;;;;73.47;29.85;;;;;;;4.92;100.00;102128.34;4975289;28;20395;-75
2021/12/16 12:15:25;;;;;;;62.90;28.50;;;;;;;5.06;100.00;102126.09;4975422;28;20349;-73
2021/12/16 12:18:11;;;;;;;65.90;30.13;;;;;;;5.18;100.00;102121.25;4975027;28;20078;-73
2021/12/16 12:21:17;;;;;;;71.20;31.38;;;;;;;5.40;100.00;102126.19;4975231;28;20081;-72
2021/12/16 12:24:08;;;;;;;66.88;29.95;;;;;;;5.17;100.00;102122.97;4975916;28;20062;-71
2021/12/16 12:26:57;;;;;;;67.82;30.63;;;;;;;5.32;100.00;102125.09;4975118;28;20435;-72
2021/12/16 12:29:48;;;;;;;69.68;30.90;;;;;;;5.31;100.00;102120.75;4975103;28;20034;-71
2021/12/16 12:32:37;;;;;;;70.15;30.75;;;;;;;5.09;100.00;102121.00;4974952;28;20367;-72
2021/12/16 12:35:28;;;;;;;76.78;32.97;;;;;;;5.05;100.00;102122.66;4975180;28;20191;-72
2021/12/16 12:38:14;;;;;;;77.80;33.13;;;;;;;5.30;100.00;102121.56;4962083;28;20371;-71
2021/12/16 12:41:00;;;;;;;74.57;31.13;;;;;;;5.52;100.00;102118.69;4975859;28;20503;-77
2021/12/16 12:43:47;;;;;;;84.22;33.22;;;;;;;5.79;100.00;102118.47;4974994;28;20430;-72
2021/12/16 12:46:35;;;;;;;84.82;35.42;;;;;;;5.59;100.00;102112.81;4974445;28;20054;-71
2021/12/16 12:49:25;;;;;;;84.60;36.95;;;;;;;5.35;100.00;102123.44;4975002;28;20447;-71
2021/12/16 12:52:13;;;;;;;93.82;37.47;;;;;;;5.77;100.00;102120.16;4975285;28;20030;-71
2021/12/16 12:55:04;;;;;;;101.22;38.30;;;;;;;5.28;100.00;102116.31;4974887;28;20026;-71
2021/12/16 12:57:50;;;;;;;103.32;40.58;;;;;;;4.54;100.00;102117.69;4961786;28;20038;-72
2021/12/16 13:00:38;;;;;;;98.28;40.47;;;;;;;5.10;100.00;102125.34;4974799;28;20027;-71
2021/12/16 13:03:36;;;;;;;105.43;41.30;;;;;;;4.97;100.00;102131.94;4974987;28;20165;-72
2021/12/16 13:06:26;;;;;;;100.03;41.75;;;;;;;5.42;100.00;102118.41;4974762;28;20059;-73
2021/12/16 13:09:43;;;;;;;107.78;41.83;;;;;;;5.16;100.00;102118.59;4975032;28;20073;-71
2021/12/16 13:12:55;;;;;;;105.57;41.72;;;;;;;5.72;100.00;102124.38;4971274;28;20082;-73
2021/12/16 13:15:55;;;;;;;96.80;42.65;;;;;;;5.76;100.00;102124.50;4978118;28;20062;-72
2021/12/16 13:28:04;;;;;;;125.95;50.75;;;;;;;5.26;100.00;102136.22;4977980;28;20027;-71
2021/12/16 13:30:56;;;;;;;118.35;49.25;;;;;;;5.63;100.00;102134.56;4950728;28;20022;-73
2021/12/16 13:33:54;;;;;;;118.82;49.78;;;;;;;5.73;100.00;102128.72;4977920;28;20023;-72
2021/12/16 13:36:46;;;;;;;112.82;49.25;;;;;;;5.61;100.00;102128.41;4977750;28;20026;-73
2021/12/16 13:39:32;;;;;;;105.47;45.38;;;;;;;5.43;100.00;102127.97;4978841;28;20106;-72
2021/12/16 13:42:18;;;;;;;99.72;44.35;;;;;;;6.10;100.00;102124.47;4978449;28;20031;-73
2021/12/16 13:45:18;;;;;;;102.70;46.47;;;;;;;6.21;100.00;102124.72;4977733;28;20463;-71
2021/12/16 13:48:58;;;;;;;102.20;45.00;;;;;;;6.20;100.00;102113.44;4977641;28;20097;-72
2021/12/16 14:04:25;;;;;;;123.07;51.53;;;;;;;5.49;100.00;102084.81;4978422;28;20093;-71
2021/12/16 14:07:28;;;;;;;107.30;47.90;;;;;;;6.03;100.00;102091.34;4977227;28;20492;-71
2021/12/16 14:10:18;;;;;;;109.03;45.63;;;;;;;5.54;100.00;102101.41;4977334;28;20034;-72
2021/12/16 14:33:38;;;;;;;88.78;43.53;;;;;;;6.01;100.00;102092.16;4976616;28;20034;-72
2021/12/16 14:50:38;;;;;;;87.28;41.80;;;;;;;5.66;100.00;102080.03;4976773;28;20371;-71
2021/12/16 14:53:26;;;;;;;78.93;39.67;;;;;;;5.90;100.00;102091.06;4976543;28;20035;-72
2021/12/16 14:56:12;;;;;;;80.82;41.85;;;;;;;6.23;100.00;102092.66;4962579;28;20459;-72
2021/12/16 14:59:05;;;;;;;80.22;40.70;;;;;;;6.23;100.00;102089.19;4976324;28;20031;-72
2021/12/16 15:01:53;;;;;;;78.38;40.88;;;;;;;5.79;100.00;102087.28;4961883;28;20026;-72
2021/12/16 15:04:39;;;;;;;76.78;39.35;;;;;;;5.77;100.00;102099.34;4962956;28;20035;-71
2021/12/16 15:07:27;;;;;;;76.28;38.67;;;;;;;6.01;100.00;102103.44;4976081;28;20037;-70
2021/12/16 15:10:15;;;;;;;80.60;40.75;;;;;;;6.28;100.00;102105.78;4976434;28;20037;-73
2021/12/16 15:13:09;;;;;;;76.35;39.83;;;;;;;6.41;100.00;102100.00;4975664;28;20031;-72
2021/12/16 15:43:20;;;;;;;84.88;46.90;;;;;;;6.37;100.00;102126.81;4976215;28;20075;-72
2021/12/16 15:46:06;;;;;;;80.60;43.20;;;;;;;6.32;100.00;102115.41;4977220;28;20443;-71
2021/12/16 15:48:52;;;;;;;95.57;49.72;;;;;;;6.17;100.00;102125.47;4975679;28;20371;-71
2021/12/16 15:51:38;;;;;;;92.75;48.65;;;;;;;6.06;100.00;102120.03;4975577;28;20523;-71
2021/12/16 15:54:29;;;;;;;94.70;48.60;;;;;;;6.02;100.00;102131.22;4975576;28;20383;-72
2021/12/16 15:57:18;;;;;;;96.35;51.03;;;;;;;5.78;100.00;102112.41;4975648;28;20033;-72
2021/12/16 16:00:11;;;;;;;98.75;52.28;;;;;;;6.17;100.00;102109.88;4976023;28;20027;-71
2021/12/16 16:02:59;;;;;;;95.50;52.33;;;;;;;6.60;100.00;102109.94;4975374;28;20019;-72
2021/12/16 16:05:51;;;;;;;107.40;56.00;;;;;;;6.29;100.00;102116.22;4975595;28;20445;-72
2021/12/16 16:08:42;;;;;;;97.90;52.28;;;;;;;6.03;100.00;102117.34;4975821;28;20363;-72
2021/12/16 16:11:33;;;;;;;91.10;50.05;;;;;;;5.74;100.00;102114.91;4975639;28;20078;-72
2021/12/16 16:14:22;;;;;;;103.00;51.40;;;;;;;6.54;100.00;102108.09;4975726;28;20031;-71
2021/12/16 16:17:14;;;;;;;92.05;49.40;;;;;;;6.53;100.00;102115.88;4955052;28;20387;-71
2021/12/16 16:20:02;;;;;;;88.15;47.88;;;;;;;6.30;100.00;102107.56;4955145;29;20019;-73
2021/12/16 16:22:48;;;;;;;98.60;51.88;;;;;;;6.64;100.00;102111.78;4956285;28;20027;-71
2021/12/16 16:25:35;;;;;;;92.95;49.92;;;;;;;6.90;100.00;102110.56;4955538;28;20098;-72
2021/12/16 16:28:25;;;;;;;88.03;47.75;;;;;;;6.81;100.00;102108.66;4956243;28;20118;-72
2021/12/16 16:31:17;;;;;;;86.80;46.97;;;;;;;6.83;100.00;102112.16;4955815;28;20062;-72
2021/12/16 16:34:18;;;;;;;87.13;45.33;;;;;;;6.72;100.00;102108.50;4956130;28;20039;-71
2021/12/16 16:37:07;;;;;;;88.65;48.85;;;;;;;6.84;100.00;102113.94;4957701;28;20027;-73